sensor_id;sensor_type;location;lat;lon;timestamp;P1;durP1;ratioP1;P2;durP2;ratioP2
20423;SDS011;10371;49.042;8.002;2023-05-14T00:00:43;7.60;;;7.00;;
20423;SDS011;10371;49.042;8.002;2023-05-14T00:01:43;7.65;;;6.95;;
20423;SDS011;10371;49.042;8.002;2023-05-14T00:02:45;7.13;;;6.53;;
20423;SDS011;10371;49.042;8.002;2023-05-14T00:03:45;7.03;;;5.90;;
20423;SDS011;10371;49.042;8.002;2023-05-14T00:04:45;6.10;;;5.70;;
20423;SDS011;10371;49.042;8.002;2023-05-14T00:05:46;6.13;;;5.63;;
20423;SDS011;10371;49.042;8.002;2023-05-14T00:06:47;6.22;;;5.63;;
20423;SDS011;10371;49.042;8.002;2023-05-14T00:07:47;5.95;;;5.45;;
20423;SDS011;10371;49.042;8.002;2023-05-14T00:08:47;6.05;;;5.60;;
20423;SDS011;10371;49.042;8.002;2023-05-14T00:09:48;6.90;;;6.05;;
20423;SDS011;10371;49.042;8.002;2023-05-14T00:10:48;6.32;;;5.82;;
20423;SDS011;10371;49.042;8.002;2023-05-14T00:11:48;6.07;;;5.57;;
20423;SDS011;10371;49.042;8.002;2023-05-14T00:12:49;6.32;;;5.78;;
20423;SDS011;10371;49.042;8.002;2023-05-14T00:13:50;6.13;;;5.63;;
20423;SDS011;10371;49.042;8.002;2023-05-14T00:14:50;6.40;;;5.90;;
20423;SDS011;10371;49.042;8.002;2023-05-14T00:15:51;5.97;;;5.57;;
20423;SDS011;10371;49.042;8.002;2023-05-14T00:16:52;6.00;;;5.50;;
20423;SDS011;10371;49.042;8.002;2023-05-14T00:17:52;5.82;;;5.43;;
20423;SDS011;10371;49.042;8.002;2023-05-14T00:18:52;6.53;;;5.97;;
20423;SDS011;10371;49.042;8.002;2023-05-14T00:19:52;6.10;;;5.70;;
20423;SDS011;10371;49.042;8.002;2023-05-14T00:20:53;6.10;;;5.70;;
20423;SDS011;10371;49.042;8.002;2023-05-14T00:21:53;5.80;;;5.40;;
20423;SDS011;10371;49.042;8.002;2023-05-14T00:22:54;6.10;;;5.70;;
20423;SDS011;10371;49.042;8.002;2023-05-14T00:23:54;7.35;;;5.43;;
20423;SDS011;10371;49.042;8.002;2023-05-14T00:24:54;6.13;;;5.72;;
20423;SDS011;10371;49.042;8.002;2023-05-14T00:25:54;6.35;;;5.85;;
20423;SDS011;10371;49.042;8.002;2023-05-14T00:26:55;6.25;;;5.75;;
20423;SDS011;10371;49.042;8.002;2023-05-14T00:27:55;5.75;;;5.35;;
20423;SDS011;10371;49.042;8.002;2023-05-14T00:28:55;5.95;;;5.53;;
20423;SDS011;10371;49.042;8.002;2023-05-14T00:29:56;6.10;;;5.70;;
20423;SDS011;10371;49.042;8.002;2023-05-14T00:30:56;5.90;;;5.50;;
20423;SDS011;10371;49.042;8.002;2023-05-14T00:31:56;5.50;;;5.13;;
20423;SDS011;10371;49.042;8.002;2023-05-14T00:32:56;6.50;;;6.00;;
20423;SDS011;10371;49.042;8.002;2023-05-14T00:33:57;5.97;;;5.57;;
20423;SDS011;10371;49.042;8.002;2023-05-14T00:34:57;6.07;;;5.57;;
20423;SDS011;10371;49.042;8.002;2023-05-14T00:35:57;6.45;;;5.93;;
20423;SDS011;10371;49.042;8.002;2023-05-14T00:36:58;6.30;;;5.65;;
20423;SDS011;10371;49.042;8.002;2023-05-14T00:37:58;6.38;;;5.75;;
20423;SDS011;10371;49.042;8.002;2023-05-14T00:38:58;6.57;;;6.05;;
20423;SDS011;10371;49.042;8.002;2023-05-14T00:39:58;6.25;;;5.85;;
20423;SDS011;10371;49.042;8.002;2023-05-14T00:40:59;6.55;;;6.05;;
20423;SDS011;10371;49.042;8.002;2023-05-14T00:41:59;6.85;;;6.20;;
20423;SDS011;10371;49.042;8.002;2023-05-14T00:42:59;6.38;;;5.88;;
20423;SDS011;10371;49.042;8.002;2023-05-14T00:43:59;6.40;;;6.00;;
20423;SDS011;10371;49.042;8.002;2023-05-14T00:45:00;6.55;;;6.03;;
20423;SDS011;10371;49.042;8.002;2023-05-14T00:46:00;6.55;;;6.05;;
20423;SDS011;10371;49.042;8.002;2023-05-14T00:47:00;7.47;;;6.97;;
20423;SDS011;10371;49.042;8.002;2023-05-14T00:48:01;7.20;;;6.60;;
20423;SDS011;10371;49.042;8.002;2023-05-14T00:49:02;6.90;;;6.20;;
20423;SDS011;10371;49.042;8.002;2023-05-14T00:50:02;6.70;;;6.13;;
20423;SDS011;10371;49.042;8.002;2023-05-14T00:51:03;7.63;;;6.97;;
20423;SDS011;10371;49.042;8.002;2023-05-14T00:52:04;7.00;;;6.43;;
20423;SDS011;10371;49.042;8.002;2023-05-14T00:53:04;9.73;;;7.37;;
20423;SDS011;10371;49.042;8.002;2023-05-14T00:54:09;7.67;;;7.17;;
20423;SDS011;10371;49.042;8.002;2023-05-14T00:55:10;7.27;;;6.70;;
20423;SDS011;10371;49.042;8.002;2023-05-14T00:56:15;7.93;;;7.17;;
20423;SDS011;10371;49.042;8.002;2023-05-14T00:57:16;7.50;;;7.00;;
20423;SDS011;10371;49.042;8.002;2023-05-14T00:58:17;7.63;;;6.93;;
20423;SDS011;10371;49.042;8.002;2023-05-14T00:59:18;7.93;;;7.23;;
20423;SDS011;10371;49.042;8.002;2023-05-14T01:00:18;7.93;;;7.30;;
20423;SDS011;10371;49.042;8.002;2023-05-14T01:01:19;7.83;;;7.10;;
20423;SDS011;10371;49.042;8.002;2023-05-14T01:02:19;8.80;;;8.00;;
20423;SDS011;10371;49.042;8.002;2023-05-14T01:03:20;8.10;;;7.50;;
20423;SDS011;10371;49.042;8.002;2023-05-14T01:04:20;8.47;;;7.77;;
20423;SDS011;10371;49.042;8.002;2023-05-14T01:05:21;8.13;;;7.53;;
20423;SDS011;10371;49.042;8.002;2023-05-14T01:08:06;8.90;;;8.20;;
20423;SDS011;10371;49.042;8.002;2023-05-14T01:09:16;8.83;;;7.90;;
20423;SDS011;10371;49.042;8.002;2023-05-14T01:10:38;8.73;;;7.83;;
20423;SDS011;10371;49.042;8.002;2023-05-14T01:12:58;8.83;;;8.23;;
20423;SDS011;10371;49.042;8.002;2023-05-14T01:15:22;8.13;;;7.53;;
20423;SDS011;10371;49.042;8.002;2023-05-14T01:16:27;8.10;;;7.40;;
20423;SDS011;10371;49.042;8.002;2023-05-14T01:17:30;8.30;;;7.60;;
20423;SDS011;10371;49.042;8.002;2023-05-14T01:18:35;7.80;;;7.20;;
20423;SDS011;10371;49.042;8.002;2023-05-14T01:19:40;7.93;;;7.32;;
20423;SDS011;10371;49.042;8.002;2023-05-14T01:20:44;8.50;;;7.73;;
20423;SDS011;10371;49.042;8.002;2023-05-14T01:21:45;8.53;;;7.93;;
20423;SDS011;10371;49.042;8.002;2023-05-14T01:22:45;7.65;;;7.05;;
20423;SDS011;10371;49.042;8.002;2023-05-14T01:23:45;7.10;;;6.53;;
20423;SDS011;10371;49.042;8.002;2023-05-14T01:24:45;7.83;;;7.13;;
20423;SDS011;10371;49.042;8.002;2023-05-14T01:25:46;7.53;;;6.93;;
20423;SDS011;10371;49.042;8.002;2023-05-14T01:26:46;7.18;;;6.57;;
20423;SDS011;10371;49.042;8.002;2023-05-14T01:29:27;7.50;;;6.80;;
20423;SDS011;10371;49.042;8.002;2023-05-14T01:30:37;7.15;;;6.45;;
20423;SDS011;10371;49.042;8.002;2023-05-14T01:31:43;7.13;;;6.63;;
20423;SDS011;10371;49.042;8.002;2023-05-14T01:32:46;6.95;;;6.40;;
20423;SDS011;10371;49.042;8.002;2023-05-14T01:33:50;7.10;;;6.60;;
20423;SDS011;10371;49.042;8.002;2023-05-14T01:34:51;7.10;;;6.50;;
20423;SDS011;10371;49.042;8.002;2023-05-14T01:35:54;6.55;;;6.05;;
20423;SDS011;10371;49.042;8.002;2023-05-14T01:36:55;7.45;;;6.72;;
20423;SDS011;10371;49.042;8.002;2023-05-14T01:37:57;9.60;;;6.47;;
20423;SDS011;10371;49.042;8.002;2023-05-14T01:38:59;6.60;;;6.00;;
20423;SDS011;10371;49.042;8.002;2023-05-14T01:40:00;6.15;;;5.75;;
20423;SDS011;10371;49.042;8.002;2023-05-14T01:41:02;6.03;;;5.63;;
20423;SDS011;10371;49.042;8.002;2023-05-14T01:42:04;6.05;;;5.60;;
20423;SDS011;10371;49.042;8.002;2023-05-14T01:43:05;5.93;;;5.50;;
20423;SDS011;10371;49.042;8.002;2023-05-14T01:44:10;6.38;;;5.78;;
20423;SDS011;10371;49.042;8.002;2023-05-14T01:45:10;5.13;;;4.78;;
20423;SDS011;10371;49.042;8.002;2023-05-14T01:46:10;5.78;;;5.28;;
20423;SDS011;10371;49.042;8.002;2023-05-14T01:47:11;5.85;;;5.45;;
20423;SDS011;10371;49.042;8.002;2023-05-14T01:48:11;5.70;;;5.20;;
20423;SDS011;10371;49.042;8.002;2023-05-14T01:49:11;6.28;;;5.50;;
20423;SDS011;10371;49.042;8.002;2023-05-14T01:50:11;5.50;;;4.97;;
20423;SDS011;10371;49.042;8.002;2023-05-14T01:51:12;5.88;;;5.32;;
20423;SDS011;10371;49.042;8.002;2023-05-14T01:52:13;5.20;;;4.80;;
20423;SDS011;10371;49.042;8.002;2023-05-14T01:53:13;5.55;;;5.15;;
20423;SDS011;10371;49.042;8.002;2023-05-14T01:54:14;5.47;;;5.13;;
20423;SDS011;10371;49.042;8.002;2023-05-14T01:55:14;5.07;;;4.70;;
20423;SDS011;10371;49.042;8.002;2023-05-14T01:56:14;5.45;;;4.95;;
20423;SDS011;10371;49.042;8.002;2023-05-14T01:57:15;5.57;;;5.18;;
20423;SDS011;10371;49.042;8.002;2023-05-14T01:58:15;5.45;;;4.95;;
20423;SDS011;10371;49.042;8.002;2023-05-14T01:59:15;5.40;;;5.05;;
20423;SDS011;10371;49.042;8.002;2023-05-14T02:00:16;5.40;;;4.93;;
20423;SDS011;10371;49.042;8.002;2023-05-14T02:01:17;4.90;;;4.40;;
20423;SDS011;10371;49.042;8.002;2023-05-14T02:02:17;6.32;;;4.80;;
20423;SDS011;10371;49.042;8.002;2023-05-14T02:03:17;5.00;;;4.53;;
20423;SDS011;10371;49.042;8.002;2023-05-14T02:04:17;5.15;;;4.75;;
20423;SDS011;10371;49.042;8.002;2023-05-14T02:05:19;5.32;;;4.82;;
20423;SDS011;10371;49.042;8.002;2023-05-14T02:06:20;5.15;;;4.75;;
20423;SDS011;10371;49.042;8.002;2023-05-14T02:07:20;5.18;;;4.78;;
20423;SDS011;10371;49.042;8.002;2023-05-14T02:08:20;4.97;;;4.68;;
20423;SDS011;10371;49.042;8.002;2023-05-14T02:09:20;4.93;;;4.18;;
20423;SDS011;10371;49.042;8.002;2023-05-14T02:10:21;4.93;;;4.50;;
20423;SDS011;10371;49.042;8.002;2023-05-14T02:11:21;5.18;;;4.78;;
20423;SDS011;10371;49.042;8.002;2023-05-14T02:12:21;5.40;;;4.95;;
20423;SDS011;10371;49.042;8.002;2023-05-14T02:13:22;4.85;;;4.55;;
20423;SDS011;10371;49.042;8.002;2023-05-14T02:14:23;4.40;;;4.10;;
20423;SDS011;10371;49.042;8.002;2023-05-14T02:15:23;4.88;;;4.47;;
20423;SDS011;10371;49.042;8.002;2023-05-14T02:16:24;5.35;;;4.90;;
20423;SDS011;10371;49.042;8.002;2023-05-14T02:17:25;4.97;;;4.57;;
20423;SDS011;10371;49.042;8.002;2023-05-14T02:18:25;4.82;;;4.53;;
20423;SDS011;10371;49.042;8.002;2023-05-14T02:19:25;4.82;;;4.53;;
20423;SDS011;10371;49.042;8.002;2023-05-14T02:20:26;4.50;;;4.10;;
20423;SDS011;10371;49.042;8.002;2023-05-14T02:21:26;4.80;;;4.50;;
20423;SDS011;10371;49.042;8.002;2023-05-14T02:22:26;4.78;;;4.38;;
20423;SDS011;10371;49.042;8.002;2023-05-14T02:23:26;5.00;;;4.50;;
20423;SDS011;10371;49.042;8.002;2023-05-14T02:24:27;4.65;;;4.35;;
20423;SDS011;10371;49.042;8.002;2023-05-14T02:25:27;4.85;;;4.35;;
20423;SDS011;10371;49.042;8.002;2023-05-14T02:26:27;5.13;;;4.72;;
20423;SDS011;10371;49.042;8.002;2023-05-14T02:27:28;4.50;;;4.20;;
20423;SDS011;10371;49.042;8.002;2023-05-14T02:28:28;4.72;;;4.32;;
20423;SDS011;10371;49.042;8.002;2023-05-14T02:29:28;4.78;;;4.40;;
20423;SDS011;10371;49.042;8.002;2023-05-14T02:30:28;5.15;;;4.78;;
20423;SDS011;10371;49.042;8.002;2023-05-14T02:31:30;4.80;;;4.40;;
20423;SDS011;10371;49.042;8.002;2023-05-14T02:32:30;4.90;;;4.60;;
20423;SDS011;10371;49.042;8.002;2023-05-14T02:33:30;5.40;;;5.00;;
20423;SDS011;10371;49.042;8.002;2023-05-14T02:34:31;4.55;;;4.25;;
20423;SDS011;10371;49.042;8.002;2023-05-14T02:35:33;5.13;;;4.70;;
20423;SDS011;10371;49.042;8.002;2023-05-14T02:36:33;4.63;;;4.32;;
20423;SDS011;10371;49.042;8.002;2023-05-14T02:37:33;4.60;;;4.28;;
20423;SDS011;10371;49.042;8.002;2023-05-14T02:38:34;4.97;;;4.57;;
20423;SDS011;10371;49.042;8.002;2023-05-14T02:39:34;5.32;;;4.93;;
20423;SDS011;10371;49.042;8.002;2023-05-14T02:40:35;5.03;;;4.60;;
20423;SDS011;10371;49.042;8.002;2023-05-14T02:41:35;4.93;;;4.63;;
20423;SDS011;10371;49.042;8.002;2023-05-14T02:42:36;5.20;;;4.60;;
20423;SDS011;10371;49.042;8.002;2023-05-14T02:43:36;4.72;;;4.40;;
20423;SDS011;10371;49.042;8.002;2023-05-14T02:44:36;5.03;;;4.68;;
20423;SDS011;10371;49.042;8.002;2023-05-14T02:45:36;4.57;;;4.25;;
20423;SDS011;10371;49.042;8.002;2023-05-14T02:46:37;6.85;;;4.70;;
20423;SDS011;10371;49.042;8.002;2023-05-14T02:47:37;5.22;;;4.72;;
20423;SDS011;10371;49.042;8.002;2023-05-14T02:48:37;4.72;;;4.43;;
20423;SDS011;10371;49.042;8.002;2023-05-14T02:49:37;4.63;;;4.18;;
20423;SDS011;10371;49.042;8.002;2023-05-14T02:50:39;5.18;;;4.68;;
20423;SDS011;10371;49.042;8.002;2023-05-14T02:51:39;5.47;;;5.03;;
20423;SDS011;10371;49.042;8.002;2023-05-14T02:52:39;5.15;;;4.68;;
20423;SDS011;10371;49.042;8.002;2023-05-14T02:53:40;5.07;;;4.68;;
20423;SDS011;10371;49.042;8.002;2023-05-14T02:54:40;4.72;;;4.35;;
20423;SDS011;10371;49.042;8.002;2023-05-14T02:55:40;5.18;;;4.72;;
20423;SDS011;10371;49.042;8.002;2023-05-14T02:56:40;4.47;;;4.18;;
20423;SDS011;10371;49.042;8.002;2023-05-14T02:57:41;5.13;;;4.72;;
20423;SDS011;10371;49.042;8.002;2023-05-14T02:58:41;4.75;;;4.45;;
20423;SDS011;10371;49.042;8.002;2023-05-14T02:59:41;4.50;;;4.10;;
20423;SDS011;10371;49.042;8.002;2023-05-14T03:00:42;4.63;;;4.32;;
20423;SDS011;10371;49.042;8.002;2023-05-14T03:01:42;4.43;;;4.13;;
20423;SDS011;10371;49.042;8.002;2023-05-14T03:02:42;4.88;;;4.47;;
20423;SDS011;10371;49.042;8.002;2023-05-14T03:03:43;4.70;;;4.40;;
20423;SDS011;10371;49.042;8.002;2023-05-14T03:04:43;4.55;;;4.25;;
20423;SDS011;10371;49.042;8.002;2023-05-14T03:05:44;4.88;;;4.57;;
20423;SDS011;10371;49.042;8.002;2023-05-14T03:06:44;4.78;;;4.47;;
20423;SDS011;10371;49.042;8.002;2023-05-14T03:07:44;4.97;;;4.57;;
20423;SDS011;10371;49.042;8.002;2023-05-14T03:08:45;4.70;;;4.40;;
20423;SDS011;10371;49.042;8.002;2023-05-14T03:09:45;4.70;;;4.40;;
20423;SDS011;10371;49.042;8.002;2023-05-14T03:10:45;4.95;;;4.60;;
20423;SDS011;10371;49.042;8.002;2023-05-14T03:11:45;4.72;;;4.43;;
20423;SDS011;10371;49.042;8.002;2023-05-14T03:12:46;4.55;;;4.25;;
20423;SDS011;10371;49.042;8.002;2023-05-14T03:13:46;5.15;;;4.65;;
20423;SDS011;10371;49.042;8.002;2023-05-14T03:14:47;5.82;;;5.07;;
20423;SDS011;10371;49.042;8.002;2023-05-14T03:15:47;5.13;;;4.70;;
20423;SDS011;10371;49.042;8.002;2023-05-14T03:16:47;4.90;;;4.50;;
20423;SDS011;10371;49.042;8.002;2023-05-14T03:17:47;4.85;;;4.45;;
20423;SDS011;10371;49.042;8.002;2023-05-14T03:18:48;5.05;;;4.65;;
20423;SDS011;10371;49.042;8.002;2023-05-14T03:19:48;5.22;;;4.82;;
20423;SDS011;10371;49.042;8.002;2023-05-14T03:20:48;5.20;;;4.75;;
20423;SDS011;10371;49.042;8.002;2023-05-14T03:21:49;4.75;;;4.35;;
20423;SDS011;10371;49.042;8.002;2023-05-14T03:22:49;5.03;;;4.63;;
20423;SDS011;10371;49.042;8.002;2023-05-14T03:23:50;4.85;;;4.45;;
20423;SDS011;10371;49.042;8.002;2023-05-14T03:24:51;5.43;;;5.03;;
20423;SDS011;10371;49.042;8.002;2023-05-14T03:25:51;4.95;;;4.65;;
20423;SDS011;10371;49.042;8.002;2023-05-14T03:26:52;5.10;;;4.70;;
20423;SDS011;10371;49.042;8.002;2023-05-14T03:27:52;5.05;;;4.65;;
20423;SDS011;10371;49.042;8.002;2023-05-14T03:28:52;5.50;;;5.10;;
20423;SDS011;10371;49.042;8.002;2023-05-14T03:29:53;5.68;;;5.18;;
20423;SDS011;10371;49.042;8.002;2023-05-14T03:30:53;5.55;;;5.22;;
20423;SDS011;10371;49.042;8.002;2023-05-14T03:31:54;5.32;;;4.93;;
20423;SDS011;10371;49.042;8.002;2023-05-14T03:32:56;5.18;;;4.68;;
20423;SDS011;10371;49.042;8.002;2023-05-14T03:33:56;5.43;;;4.93;;
20423;SDS011;10371;49.042;8.002;2023-05-14T03:34:56;5.57;;;4.95;;
20423;SDS011;10371;49.042;8.002;2023-05-14T03:35:57;5.38;;;4.97;;
20423;SDS011;10371;49.042;8.002;2023-05-14T03:36:57;5.68;;;5.05;;
20423;SDS011;10371;49.042;8.002;2023-05-14T03:37:57;5.35;;;4.85;;
20423;SDS011;10371;49.042;8.002;2023-05-14T03:38:58;4.43;;;4.13;;
20423;SDS011;10371;49.042;8.002;2023-05-14T03:39:58;5.22;;;4.75;;
20423;SDS011;10371;49.042;8.002;2023-05-14T03:40:58;4.90;;;4.60;;
20423;SDS011;10371;49.042;8.002;2023-05-14T03:41:59;5.10;;;4.68;;
20423;SDS011;10371;49.042;8.002;2023-05-14T03:42:59;4.97;;;4.57;;
20423;SDS011;10371;49.042;8.002;2023-05-14T03:44:00;5.00;;;4.60;;
20423;SDS011;10371;49.042;8.002;2023-05-14T03:45:00;5.30;;;4.90;;
20423;SDS011;10371;49.042;8.002;2023-05-14T03:46:00;5.05;;;4.65;;
20423;SDS011;10371;49.042;8.002;2023-05-14T03:47:01;4.72;;;4.35;;
20423;SDS011;10371;49.042;8.002;2023-05-14T03:48:01;5.10;;;4.70;;
20423;SDS011;10371;49.042;8.002;2023-05-14T03:49:01;5.55;;;5.05;;
20423;SDS011;10371;49.042;8.002;2023-05-14T03:50:02;5.78;;;5.18;;
20423;SDS011;10371;49.042;8.002;2023-05-14T03:51:02;5.68;;;5.25;;
20423;SDS011;10371;49.042;8.002;2023-05-14T03:52:03;6.28;;;4.63;;
20423;SDS011;10371;49.042;8.002;2023-05-14T03:53:03;5.40;;;5.00;;
20423;SDS011;10371;49.042;8.002;2023-05-14T03:54:03;5.10;;;4.70;;
20423;SDS011;10371;49.042;8.002;2023-05-14T03:55:04;6.15;;;5.65;;
20423;SDS011;10371;49.042;8.002;2023-05-14T03:56:05;5.85;;;5.40;;
20423;SDS011;10371;49.042;8.002;2023-05-14T03:57:05;5.72;;;5.22;;
20423;SDS011;10371;49.042;8.002;2023-05-14T03:58:06;5.68;;;5.18;;
20423;SDS011;10371;49.042;8.002;2023-05-14T03:59:12;5.70;;;5.30;;
20423;SDS011;10371;49.042;8.002;2023-05-14T04:00:13;5.65;;;5.25;;
20423;SDS011;10371;49.042;8.002;2023-05-14T04:01:13;5.60;;;5.20;;
20423;SDS011;10371;49.042;8.002;2023-05-14T04:02:14;6.22;;;5.78;;
20423;SDS011;10371;49.042;8.002;2023-05-14T04:03:14;5.80;;;5.40;;
20423;SDS011;10371;49.042;8.002;2023-05-14T04:04:14;5.70;;;5.30;;
20423;SDS011;10371;49.042;8.002;2023-05-14T04:05:15;5.70;;;5.30;;
20423;SDS011;10371;49.042;8.002;2023-05-14T04:06:15;6.38;;;5.78;;
20423;SDS011;10371;49.042;8.002;2023-05-14T04:07:15;5.72;;;5.30;;
20423;SDS011;10371;49.042;8.002;2023-05-14T04:08:16;5.93;;;5.38;;
20423;SDS011;10371;49.042;8.002;2023-05-14T04:09:16;6.40;;;5.78;;
20423;SDS011;10371;49.042;8.002;2023-05-14T04:10:16;6.07;;;5.57;;
20423;SDS011;10371;49.042;8.002;2023-05-14T04:11:16;5.88;;;5.38;;
20423;SDS011;10371;49.042;8.002;2023-05-14T04:12:17;6.03;;;5.53;;
20423;SDS011;10371;49.042;8.002;2023-05-14T04:13:17;6.13;;;5.65;;
20423;SDS011;10371;49.042;8.002;2023-05-14T04:14:17;6.35;;;5.85;;
20423;SDS011;10371;49.042;8.002;2023-05-14T04:15:17;5.97;;;5.50;;
20423;SDS011;10371;49.042;8.002;2023-05-14T04:16:18;6.68;;;6.07;;
20423;SDS011;10371;49.042;8.002;2023-05-14T04:17:18;6.30;;;5.80;;
20423;SDS011;10371;49.042;8.002;2023-05-14T04:18:18;6.20;;;5.70;;
20423;SDS011;10371;49.042;8.002;2023-05-14T04:19:18;6.47;;;6.05;;
20423;SDS011;10371;49.042;8.002;2023-05-14T04:20:19;6.68;;;6.10;;
20423;SDS011;10371;49.042;8.002;2023-05-14T04:21:19;6.65;;;6.15;;
20423;SDS011;10371;49.042;8.002;2023-05-14T04:22:19;6.72;;;6.13;;
20423;SDS011;10371;49.042;8.002;2023-05-14T04:23:20;6.93;;;6.32;;
20423;SDS011;10371;49.042;8.002;2023-05-14T04:24:20;6.55;;;6.05;;
20423;SDS011;10371;49.042;8.002;2023-05-14T04:25:20;7.28;;;6.68;;
20423;SDS011;10371;49.042;8.002;2023-05-14T04:26:21;6.28;;;5.78;;
20423;SDS011;10371;49.042;8.002;2023-05-14T04:27:23;6.43;;;5.93;;
20423;SDS011;10371;49.042;8.002;2023-05-14T04:28:23;6.38;;;5.85;;
20423;SDS011;10371;49.042;8.002;2023-05-14T04:29:23;6.90;;;6.40;;
20423;SDS011;10371;49.042;8.002;2023-05-14T04:30:24;7.68;;;6.93;;
20423;SDS011;10371;49.042;8.002;2023-05-14T04:31:24;7.20;;;6.65;;
20423;SDS011;10371;49.042;8.002;2023-05-14T04:32:24;6.30;;;5.78;;
20423;SDS011;10371;49.042;8.002;2023-05-14T04:33:25;6.55;;;5.97;;
20423;SDS011;10371;49.042;8.002;2023-05-14T04:34:25;6.70;;;6.18;;
20423;SDS011;10371;49.042;8.002;2023-05-14T04:35:25;6.90;;;6.30;;
20423;SDS011;10371;49.042;8.002;2023-05-14T04:36:26;6.70;;;6.20;;
20423;SDS011;10371;49.042;8.002;2023-05-14T04:37:26;6.45;;;5.93;;
20423;SDS011;10371;49.042;8.002;2023-05-14T04:38:27;7.05;;;6.45;;
20423;SDS011;10371;49.042;8.002;2023-05-14T04:39:27;6.20;;;5.78;;
20423;SDS011;10371;49.042;8.002;2023-05-14T04:40:27;7.13;;;6.20;;
20423;SDS011;10371;49.042;8.002;2023-05-14T04:41:27;5.75;;;5.35;;
20423;SDS011;10371;49.042;8.002;2023-05-14T04:42:28;6.93;;;6.20;;
20423;SDS011;10371;49.042;8.002;2023-05-14T04:43:28;6.97;;;6.38;;
20423;SDS011;10371;49.042;8.002;2023-05-14T04:44:28;6.53;;;6.03;;
20423;SDS011;10371;49.042;8.002;2023-05-14T04:45:28;6.57;;;5.97;;
20423;SDS011;10371;49.042;8.002;2023-05-14T04:46:29;6.78;;;6.28;;
20423;SDS011;10371;49.042;8.002;2023-05-14T04:47:30;6.70;;;6.10;;
20423;SDS011;10371;49.042;8.002;2023-05-14T04:48:30;6.72;;;6.22;;
20423;SDS011;10371;49.042;8.002;2023-05-14T04:49:31;6.78;;;6.25;;
20423;SDS011;10371;49.042;8.002;2023-05-14T04:50:32;6.93;;;6.32;;
20423;SDS011;10371;49.042;8.002;2023-05-14T04:51:33;6.78;;;6.22;;
20423;SDS011;10371;49.042;8.002;2023-05-14T04:52:33;6.13;;;5.63;;
20423;SDS011;10371;49.042;8.002;2023-05-14T04:53:34;6.72;;;6.15;;
20423;SDS011;10371;49.042;8.002;2023-05-14T04:54:34;6.35;;;5.88;;
20423;SDS011;10371;49.042;8.002;2023-05-14T04:55:35;6.18;;;5.68;;
20423;SDS011;10371;49.042;8.002;2023-05-14T04:56:35;6.60;;;6.10;;
20423;SDS011;10371;49.042;8.002;2023-05-14T04:57:35;7.07;;;6.47;;
20423;SDS011;10371;49.042;8.002;2023-05-14T04:58:36;6.82;;;6.28;;
20423;SDS011;10371;49.042;8.002;2023-05-14T04:59:36;6.30;;;5.90;;
20423;SDS011;10371;49.042;8.002;2023-05-14T05:00:36;7.07;;;6.50;;
20423;SDS011;10371;49.042;8.002;2023-05-14T05:01:37;6.68;;;6.07;;
20423;SDS011;10371;49.042;8.002;2023-05-14T05:02:37;6.50;;;6.00;;
20423;SDS011;10371;49.042;8.002;2023-05-14T05:03:37;6.50;;;5.85;;
20423;SDS011;10371;49.042;8.002;2023-05-14T05:04:38;6.70;;;6.15;;
20423;SDS011;10371;49.042;8.002;2023-05-14T05:05:38;6.65;;;6.05;;
20423;SDS011;10371;49.042;8.002;2023-05-14T05:06:38;6.40;;;5.90;;
20423;SDS011;10371;49.042;8.002;2023-05-14T05:07:39;5.97;;;5.57;;
20423;SDS011;10371;49.042;8.002;2023-05-14T05:08:39;6.40;;;5.90;;
20423;SDS011;10371;49.042;8.002;2023-05-14T05:09:41;6.10;;;5.60;;
20423;SDS011;10371;49.042;8.002;2023-05-14T05:10:42;6.00;;;5.50;;
20423;SDS011;10371;49.042;8.002;2023-05-14T05:11:42;5.90;;;5.40;;
20423;SDS011;10371;49.042;8.002;2023-05-14T05:12:42;6.43;;;5.88;;
20423;SDS011;10371;49.042;8.002;2023-05-14T05:13:42;6.45;;;5.95;;
20423;SDS011;10371;49.042;8.002;2023-05-14T05:14:43;5.72;;;5.32;;
20423;SDS011;10371;49.042;8.002;2023-05-14T05:15:43;6.18;;;5.68;;
20423;SDS011;10371;49.042;8.002;2023-05-14T05:16:43;6.30;;;5.47;;
20423;SDS011;10371;49.042;8.002;2023-05-14T05:17:44;6.00;;;5.50;;
20423;SDS011;10371;49.042;8.002;2023-05-14T05:18:44;5.93;;;5.43;;
20423;SDS011;10371;49.042;8.002;2023-05-14T05:19:44;6.15;;;5.57;;
20423;SDS011;10371;49.042;8.002;2023-05-14T05:20:45;6.18;;;5.68;;
20423;SDS011;10371;49.042;8.002;2023-05-14T05:21:45;5.75;;;5.35;;
20423;SDS011;10371;49.042;8.002;2023-05-14T05:22:45;5.95;;;5.38;;
20423;SDS011;10371;49.042;8.002;2023-05-14T05:23:46;6.28;;;5.65;;
20423;SDS011;10371;49.042;8.002;2023-05-14T05:24:46;6.07;;;5.63;;
20423;SDS011;10371;49.042;8.002;2023-05-14T05:25:47;6.00;;;5.50;;
20423;SDS011;10371;49.042;8.002;2023-05-14T05:26:48;5.38;;;4.97;;
20423;SDS011;10371;49.042;8.002;2023-05-14T05:27:49;5.97;;;5.47;;
20423;SDS011;10371;49.042;8.002;2023-05-14T05:28:49;6.32;;;5.82;;
20423;SDS011;10371;49.042;8.002;2023-05-14T05:29:49;6.47;;;5.97;;
20423;SDS011;10371;49.042;8.002;2023-05-14T05:30:50;6.20;;;5.80;;
20423;SDS011;10371;49.042;8.002;2023-05-14T05:31:50;6.50;;;6.00;;
20423;SDS011;10371;49.042;8.002;2023-05-14T05:32:50;6.50;;;5.90;;
20423;SDS011;10371;49.042;8.002;2023-05-14T05:33:50;6.70;;;6.10;;
20423;SDS011;10371;49.042;8.002;2023-05-14T05:34:51;6.80;;;6.20;;
20423;SDS011;10371;49.042;8.002;2023-05-14T05:35:51;6.25;;;5.85;;
20423;SDS011;10371;49.042;8.002;2023-05-14T05:36:51;6.47;;;5.97;;
20423;SDS011;10371;49.042;8.002;2023-05-14T05:37:52;6.40;;;5.90;;
20423;SDS011;10371;49.042;8.002;2023-05-14T05:38:52;6.95;;;6.32;;
20423;SDS011;10371;49.042;8.002;2023-05-14T05:39:52;7.00;;;6.40;;
20423;SDS011;10371;49.042;8.002;2023-05-14T05:40:53;6.75;;;6.25;;
20423;SDS011;10371;49.042;8.002;2023-05-14T05:41:53;6.70;;;6.20;;
20423;SDS011;10371;49.042;8.002;2023-05-14T05:42:53;6.82;;;6.28;;
20423;SDS011;10371;49.042;8.002;2023-05-14T05:43:54;8.07;;;6.70;;
20423;SDS011;10371;49.042;8.002;2023-05-14T05:44:54;7.32;;;6.78;;
20423;SDS011;10371;49.042;8.002;2023-05-14T05:45:55;8.20;;;6.78;;
20423;SDS011;10371;49.042;8.002;2023-05-14T05:46:55;7.00;;;6.50;;
20423;SDS011;10371;49.042;8.002;2023-05-14T05:47:56;7.75;;;7.15;;
20423;SDS011;10371;49.042;8.002;2023-05-14T05:48:56;8.25;;;7.57;;
20423;SDS011;10371;49.042;8.002;2023-05-14T05:49:57;8.00;;;7.20;;
20423;SDS011;10371;49.042;8.002;2023-05-14T05:50:57;8.43;;;7.50;;
20423;SDS011;10371;49.042;8.002;2023-05-14T05:51:57;7.88;;;7.18;;
20423;SDS011;10371;49.042;8.002;2023-05-14T05:52:57;7.50;;;6.90;;
20423;SDS011;10371;49.042;8.002;2023-05-14T05:53:58;7.82;;;7.07;;
20423;SDS011;10371;49.042;8.002;2023-05-14T05:54:58;7.80;;;7.10;;
20423;SDS011;10371;49.042;8.002;2023-05-14T05:55:58;8.23;;;7.18;;
20423;SDS011;10371;49.042;8.002;2023-05-14T05:56:59;7.78;;;7.10;;
20423;SDS011;10371;49.042;8.002;2023-05-14T05:57:59;8.25;;;7.55;;
20423;SDS011;10371;49.042;8.002;2023-05-14T05:58:59;8.10;;;7.32;;
20423;SDS011;10371;49.042;8.002;2023-05-14T06:00:00;7.22;;;6.53;;
20423;SDS011;10371;49.042;8.002;2023-05-14T06:01:04;8.50;;;7.70;;
20423;SDS011;10371;49.042;8.002;2023-05-14T06:02:05;8.20;;;7.50;;
20423;SDS011;10371;49.042;8.002;2023-05-14T06:03:05;7.53;;;6.82;;
20423;SDS011;10371;49.042;8.002;2023-05-14T06:04:06;7.50;;;6.90;;
20423;SDS011;10371;49.042;8.002;2023-05-14T06:05:06;7.68;;;7.07;;
20423;SDS011;10371;49.042;8.002;2023-05-14T06:06:07;8.05;;;7.45;;
20423;SDS011;10371;49.042;8.002;2023-05-14T06:07:07;8.10;;;7.50;;
20423;SDS011;10371;49.042;8.002;2023-05-14T06:08:08;8.00;;;7.30;;
20423;SDS011;10371;49.042;8.002;2023-05-14T06:09:08;7.85;;;7.13;;
20423;SDS011;10371;49.042;8.002;2023-05-14T06:10:09;7.25;;;6.65;;
20423;SDS011;10371;49.042;8.002;2023-05-14T06:11:09;7.68;;;6.57;;
20423;SDS011;10371;49.042;8.002;2023-05-14T06:12:09;7.45;;;6.85;;